Meteo Giornale » Osservazioni meteo Italia » Brescia-Ghedi

ore: 12:55 - Osservazioni Meteo Brescia-Ghedi
Lat. 45° 25' N Lon. 10° 17' E Alt. 102 metri s.l.m.

poco_nuvoloso Europe/Rome

28 °C

Poco Nuvoloso

Temp. 24 Ore

20 °C

30 °C

Sud-Est

9.3 Km/h

Dew point 10 °C

Umidità 32 %

Visibilità  10 Km

Il sole sorge alle ore 06:19

Il sole tramonta alle ore 20:26

Data e Ora Cielo e Fenomeni T °C DP °C Um. % Pres. hPa Vis. km Vento km/h
Oggi h: 12:55 poco_nuvoloso Poco Nuvoloso 28 10 32 1017 10 SE 9.3
Oggi h: 11:55 poco_nuvoloso Poco Nuvoloso 27 13 42 1017 10 S/SE 7.4
Oggi h: 10:55 poco_nuvoloso Poco Nuvoloso 27 14 44 1017 10 S/SE 7.4
Oggi h: 09:55 poco_nuvoloso Poco Nuvoloso 24 18 69 1017 10 N 1.8
Oggi h: 08:55 poco_nuvoloso Poco Nuvoloso 23 18 73 1017 10 N 1.8
Oggi h: 07:55 poco_nuvoloso Poco Nuvoloso 22 18 78 1017 10 N 5.5
Oggi h: 06:55 poco_nuvoloso Poco Nuvoloso 20 17 82 1017 10 N 5.5
Oggi h: 05:55 poco_nuvoloso Poco Nuvoloso 21 18 82 1016 10 N 0
Oggi h: 04:55 sereno Sereno 20 17 82 1016 10 E/NE 7.4
Oggi h: 03:55 sereno Sereno 21 17 77 1016 10 E/NE 7.4
Oggi h: 02:55 sereno Sereno 21 18 82 1016 10 N 3.7
Oggi h: 01:55 sereno Sereno 22 18 78 1016 10 N 3.7
Oggi h: 00:55 sereno Sereno 22 19 83 1016 10 N 5.5
Ieri h: 23:55 sereno Sereno 22 18 78 1016 10 N 3.7
Ieri h: 21:55 sereno Sereno 24 14 53 1015 10 N 1.8
Ieri h: 20:55 sereno Sereno 25 14 50 1015 10 N 1.8
Ieri h: 19:55 poco_nuvoloso Poco Nuvoloso 27 10 34 1015 10 N 3.7
Ieri h: 18:55 poco_nuvoloso Poco Nuvoloso 29 9 28 1015 10 N 3.7
Ieri h: 17:55 poco_nuvoloso Poco Nuvoloso 30 9 27 1016 10 N 3.7
Ieri h: 16:55 nuvoloso Nuvoloso 30 9 27 1016 10 SO 7.4
Ieri h: 15:55 poco_nuvoloso Poco Nuvoloso 30 10 28 1016 10 O/SO 7.4
Ieri h: 14:55 nuvoloso Nuvoloso 29 9 28 1016 10 N 5.5
Ieri h: 13:55 poco_nuvoloso Poco Nuvoloso 29 10 30 1016 10 O 7.4